Osage City, KS

6:49 AM CDT on July 04, 2015 (GMT -0500)
Skydive Kansas | | Change Station
CLOSE
Current Station
Personal Weather Station
Location: Osage City, KS
Elevation: 1089 ft
Nearby Weather Stations

Elev 1089 ft 38.64 °N, 95.80 °W | Updated 1 second ago

Clear
Clear
65.8 °F
Feels Like 65.8 °F
N
0.0
Wind Variable Wind from ENE
Gusts 0.0 mph

Today
High -- | Low -- °F
--% Chance of Precip.
Yesterday
High -- | Low -- °F
Precip. -- in
6:03 AM 8:51 PM
Waning Gibbous, 93% visible
Pressure 29.99 in
Visibility 8.0 miles
Clouds Clear
Dew Point 55 °F
Humidity 68%
Rainfall 0.00 in
Snow Depth Not available.
UV 0 out of 12
Pollen 3.90 out of 12
Air Quality Not available.
Flu Activity Not available.
METAR KFOE 041053Z 00000KT 8SM CLR 16/14 A2999 RMK AO2 SLPNO T01610139 $

More Conditions Fewer Conditions

Pressure 29.99 in
Visibility 8.0 miles
Clouds Clear
Dew Point 55 °F
Humidity 68%
Rainfall 0.00 in
Snow Depth Not available.
UV 0 out of 12
Pollen 3.90 out of 12
Air Quality Not available.
Flu Activity Not available.
METAR KFOE 041053Z 00000KT 8SM CLR 16/14 A2999 RMK AO2 SLPNO T01610139 $

More Conditions Fewer Conditions

10-Day Weather Forecast

×

Almanac

Astronomy

Jul. 04, 2015 Rise Set
Actual Time
Civil Twilight
Nautical Twilight
Astronomical Twilight
Moon
Length of Visible Light
Length of Day
Tomorrow will be .
, % of the Moon is Illuminated

Today's Extremes

State Highs State Lows

Community

WunderPhotos

Upload Photos

1,834,939 photos uploaded!

WunderBlogs® & News

Nearby

Air Quality

  Air Quality AQ Index Pollutant
Not available.

Snow Depth

Station Depth Elevation

Earthquake Activity

City Distance Mag. Time & Date
Minimum magnitude displayed is 2.5.

Coastal Water Temperatures

Place Temperature

Stations

Nearby Weather Stations

Station Location Temp. Windchill Dew Point Humidity Wind Precip. Elev Updated Type